Time;durP1;ratioP1;P1;durP2;ratioP2;P2;SDS_P1;SDS_P2;PMS_P1;PMS_P2;Temp;Humidity;BMP_temperature;BMP_pressure;BME280_temperature;BME280_humidity;BME280_pressure;Samples;Min_cycle;Max_cycle;Signal;HPM_P1;HPM_P2
2022/08/14 00:01:02;;;;;;;50.03;46.83;;;27.00;58.60;;;;;;5050308;28;20037;-79
2022/08/14 00:03:30;;;;;;;50.30;46.90;;;27.00;58.70;;;;;;5049445;28;20028;-80
2022/08/14 00:05:57;;;;;;;59.17;55.38;;;27.00;59.00;;;;;;5049252;28;20029;-79
2022/08/14 00:08:23;;;;;;;51.47;48.10;;;27.00;59.10;;;;;;5033109;28;20044;-79
2022/08/14 00:10:49;;;;;;;47.55;44.33;;;27.00;59.10;;;;;;5049115;28;20475;-80
2022/08/14 00:13:16;;;;;;;72.13;67.63;;;26.90;58.80;;;;;;5049283;28;20552;-79
2022/08/14 00:15:43;;;;;;;48.53;45.55;;;26.80;59.20;;;;;;5048866;28;20040;-80
2022/08/14 00:18:12;;;;;;;47.13;44.33;;;26.60;59.50;;;;;;5049277;28;20028;-79
2022/08/14 00:20:39;;;;;;;48.17;45.17;;;26.60;59.70;;;;;;5048907;28;20142;-79
2022/08/14 00:23:06;;;;;;;63.03;59.28;;;26.60;59.10;;;;;;5032407;28;20041;-79
2022/08/14 00:25:32;;;;;;;54.80;51.55;;;26.50;59.10;;;;;;5032576;28;20033;-79
2022/08/14 00:27:58;;;;;;;60.80;57.28;;;26.50;59.20;;;;;;5032982;28;20475;-79
2022/08/14 00:30:24;;;;;;;62.10;58.47;;;26.40;59.20;;;;;;5048632;28;20029;-80
2022/08/14 00:32:50;;;;;;;61.80;58.03;;;26.50;59.20;;;;;;5049122;28;20040;-79
2022/08/14 00:35:16;;;;;;;58.22;54.85;;;26.40;59.50;;;;;;5048467;28;20395;-79
2022/08/14 00:37:43;;;;;;;68.65;64.50;;;26.40;59.70;;;;;;5050443;28;20024;-79
2022/08/14 00:40:12;;;;;;;66.70;62.63;;;26.40;60.50;;;;;;5048910;28;20033;-79
2022/08/14 00:42:38;;;;;;;63.65;59.60;;;26.20;60.80;;;;;;5048907;28;20025;-79
2022/08/14 00:45:06;;;;;;;65.90;61.85;;;26.20;61.30;;;;;;5032846;28;20037;-78
2022/08/14 00:47:34;;;;;;;56.17;52.55;;;26.20;61.60;;;;;;5050002;28;20045;-78
2022/08/14 00:50:01;;;;;;;84.47;79.50;;;26.20;62.80;;;;;;5053673;28;20040;-77
2022/08/14 00:52:27;;;;;;;79.15;73.88;;;26.20;62.70;;;;;;5050602;28;20371;-78
2022/08/14 00:54:53;;;;;;;73.80;69.25;;;26.20;63.30;;;;;;5052402;28;20037;-78
2022/08/14 00:57:24;;;;;;;66.50;62.40;;;26.20;64.30;;;;;;5052439;28;20028;-78
2022/08/14 00:59:50;;;;;;;70.57;65.78;;;26.10;63.30;;;;;;5035623;28;20041;-77
2022/08/14 01:02:17;;;;;;;65.40;61.50;;;25.90;63.90;;;;;;5035385;28;20044;-77
2022/08/14 01:04:44;;;;;;;68.30;64.20;;;25.80;64.60;;;;;;5035694;28;20036;-77
2022/08/14 01:07:11;;;;;;;63.83;59.83;;;25.70;64.30;;;;;;5052389;28;20021;-77
2022/08/14 01:09:37;;;;;;;69.13;65.00;;;25.60;64.80;;;;;;5052366;28;20387;-78
2022/08/14 01:12:04;;;;;;;71.80;67.65;;;25.70;64.60;;;;;;5052129;28;20044;-78
2022/08/14 01:14:30;;;;;;;67.88;63.67;;;25.70;64.90;;;;;;5035327;28;20048;-77
2022/08/14 01:16:56;;;;;;;74.93;70.53;;;25.80;64.80;;;;;;5051235;28;20577;-78
2022/08/14 01:22:09;;;;;;;72.85;68.55;;;25.90;63.90;;;;;;5058826;28;20387;-78
2022/08/14 01:24:35;;;;;;;72.55;67.95;;;25.90;64.10;;;;;;5051992;28;20037;-78
2022/08/14 01:27:04;;;;;;;77.57;73.10;;;25.90;64.10;;;;;;5035695;28;20033;-77
2022/08/14 01:29:36;;;;;;;74.03;69.68;;;25.90;64.70;;;;;;5035666;28;20041;-78
2022/08/14 01:32:04;;;;;;;79.05;74.53;;;25.60;65.30;;;;;;5034961;28;20052;-78
2022/08/14 01:34:31;;;;;;;75.22;70.78;;;25.50;66.40;;;;;;5051591;28;20032;-77
2022/08/14 01:36:59;;;;;;;75.10;70.60;;;25.40;66.20;;;;;;5051830;28;20024;-77
2022/08/14 01:39:25;;;;;;;80.60;74.90;;;25.30;66.20;;;;;;5034781;28;20059;-77
2022/08/14 01:41:55;;;;;;;71.25;66.55;;;25.40;66.40;;;;;;5051498;28;20025;-78
2022/08/14 01:44:24;;;;;;;83.47;78.63;;;25.50;66.30;;;;;;5025967;28;20499;-77
2022/08/14 01:46:53;;;;;;;81.72;76.40;;;25.30;66.30;;;;;;5028635;28;20067;-78
2022/08/14 01:49:19;;;;;;;72.95;68.65;;;25.30;67.50;;;;;;5051561;28;20390;-77
2022/08/14 01:51:46;;;;;;;74.28;69.80;;;24.90;68.30;;;;;;5034646;28;20041;-77
2022/08/14 01:54:16;;;;;;;77.07;72.60;;;24.60;70.10;;;;;;5051356;28;20063;-78
2022/08/14 01:56:43;;;;;;;76.90;72.40;;;24.50;71.40;;;;;;5051359;28;20031;-77
2022/08/14 01:59:20;;;;;;;85.20;80.07;;;24.30;73.20;;;;;;5051187;28;20463;-77
2022/08/14 02:01:47;;;;;;;93.78;88.13;;;24.00;74.60;;;;;;5050342;28;20044;-77
2022/08/14 02:04:14;;;;;;;56.67;53.10;;;23.90;73.80;;;;;;5051217;28;20036;-77
2022/08/14 02:06:40;;;;;;;85.35;79.90;;;23.70;75.40;;;;;;5051242;28;20494;-77
2022/08/14 02:09:07;;;;;;;52.00;48.40;;;23.50;76.10;;;;;;5051240;28;20036;-77
2022/08/14 02:11:34;;;;;;;95.57;88.50;;;23.40;76.60;;;;;;5034144;28;20043;-77
2022/08/14 02:14:03;;;;;;;83.20;77.22;;;23.30;76.80;;;;;;5050885;28;20037;-77
2022/08/14 02:16:32;;;;;;;98.18;91.22;;;23.20;76.90;;;;;;5050059;28;20496;-78
2022/08/14 02:19:00;;;;;;;95.05;88.55;;;23.20;77.20;;;;;;5050936;28;20406;-77
2022/08/14 02:21:27;;;;;;;77.55;72.38;;;23.20;77.70;;;;;;5050837;28;20040;-77
2022/08/14 02:23:54;;;;;;;77.72;72.07;;;23.20;77.60;;;;;;5034405;28;20408;-77
2022/08/14 02:26:28;;;;;;;86.75;80.80;;;23.30;76.70;;;;;;5034354;28;20037;-77
2022/08/14 02:29:00;;;;;;;133.77;125.60;;;23.20;77.60;;;;;;5050858;28;20021;-77
2022/08/14 02:31:31;;;;;;;92.93;86.90;;;23.20;76.70;;;;;;5049896;28;20040;-77
2022/08/14 02:33:59;;;;;;;75.80;71.03;;;23.20;77.20;;;;;;5050587;28;20029;-77
2022/08/14 02:36:26;;;;;;;86.70;80.63;;;22.90;77.80;;;;;;5033733;28;20392;-77
2022/08/14 02:38:52;;;;;;;79.20;73.95;;;22.80;78.80;;;;;;5050502;28;20029;-77
2022/08/14 02:41:18;;;;;;;79.85;74.93;;;22.70;78.50;;;;;;5050416;28;20107;-77
2022/08/14 02:43:44;;;;;;;74.95;69.47;;;22.80;79.20;;;;;;5045884;28;20508;-77
2022/08/14 02:46:10;;;;;;;67.30;63.08;;;22.80;78.90;;;;;;5037728;28;20396;-77
2022/08/14 02:48:38;;;;;;;75.00;69.80;;;22.70;79.60;;;;;;5033803;28;20037;-77
2022/08/14 02:51:08;;;;;;;56.22;52.25;;;22.60;79.80;;;;;;5034066;28;20480;-77
2022/08/14 02:53:34;;;;;;;48.55;45.17;;;22.40;79.40;;;;;;5050343;28;20033;-77
2022/08/14 02:56:00;;;;;;;43.95;40.72;;;22.30;80.40;;;;;;5033420;28;20037;-78
2022/08/14 02:58:26;;;;;;;69.47;64.80;;;22.20;81.30;;;;;;5033275;28;20399;-77
2022/08/14 03:00:53;;;;;;;69.70;64.97;;;22.10;81.20;;;;;;5049669;28;20423;-77
2022/08/14 03:03:22;;;;;;;73.32;68.50;;;22.30;81.00;;;;;;5050199;28;20040;-77
2022/08/14 03:05:50;;;;;;;72.45;67.88;;;22.20;80.90;;;;;;5050434;28;20032;-77
2022/08/14 03:08:16;;;;;;;48.13;44.75;;;22.20;81.30;;;;;;5033215;28;20045;-78
2022/08/14 03:10:43;;;;;;;52.33;48.50;;;22.10;80.90;;;;;;5049543;28;20063;-77
2022/08/14 03:13:09;;;;;;;76.80;71.95;;;22.20;82.10;;;;;;5050733;28;20021;-78
2022/08/14 03:15:52;;;;;;;48.20;44.70;;;22.30;81.30;;;;;;5049528;28;20040;-77
2022/08/14 03:18:21;;;;;;;73.55;69.10;;;22.30;81.00;;;;;;5050120;28;20499;-77
2022/08/14 03:20:48;;;;;;;74.45;69.53;;;22.10;82.40;;;;;;5049877;28;20498;-77
2022/08/14 03:23:14;;;;;;;66.15;61.95;;;22.20;82.10;;;;;;5049753;28;20131;-77
2022/08/14 03:25:41;;;;;;;59.85;55.85;;;22.30;81.70;;;;;;5051028;28;20025;-77
2022/08/14 03:28:08;;;;;;;51.78;48.10;;;22.30;81.50;;;;;;5049553;28;20025;-77
2022/08/14 03:30:34;;;;;;;52.50;48.88;;;22.20;81.60;;;;;;5049164;28;20021;-77
2022/08/14 03:33:00;;;;;;;72.07;67.47;;;22.20;81.30;;;;;;5049664;28;20379;-77
2022/08/14 03:35:27;;;;;;;74.03;69.22;;;22.20;82.10;;;;;;5049548;28;20492;-77
2022/08/14 03:37:53;;;;;;;77.97;73.07;;;22.30;82.20;;;;;;5049665;28;20029;-77
2022/08/14 03:40:19;;;;;;;79.78;74.75;;;22.40;81.20;;;;;;5049445;28;20287;-77
2022/08/14 03:42:45;;;;;;;81.05;75.88;;;22.70;80.60;;;;;;5050481;28;20577;-77
2022/08/14 03:45:12;;;;;;;86.03;80.57;;;23.00;79.40;;;;;;5034087;28;20468;-77
2022/08/14 03:47:39;;;;;;;88.63;82.93;;;23.10;78.60;;;;;;5049588;28;20048;-77
2022/08/14 03:50:09;;;;;;;87.18;81.93;;;23.30;78.20;;;;;;5032729;28;20037;-77
2022/08/14 03:52:41;;;;;;;95.07;89.43;;;23.40;78.10;;;;;;5049434;28;20060;-77
2022/08/14 03:55:08;;;;;;;96.88;90.65;;;23.50;77.80;;;;;;5049617;28;20044;-77
2022/08/14 03:57:34;;;;;;;84.50;79.10;;;23.50;77.30;;;;;;5049363;28;20356;-77
2022/08/14 04:00:06;;;;;;;84.43;79.03;;;23.50;77.00;;;;;;5032979;28;20040;-76
2022/08/14 04:02:32;;;;;;;90.88;85.03;;;23.60;77.00;;;;;;5049648;28;20048;-77
2022/08/14 04:04:58;;;;;;;86.70;81.53;;;23.60;77.50;;;;;;5049482;28;20040;-78
2022/08/14 04:07:24;;;;;;;88.00;82.65;;;23.50;77.00;;;;;;5049740;28;20036;-78
2022/08/14 04:09:50;;;;;;;90.88;85.53;;;23.60;77.10;;;;;;5050501;28;20033;-78
2022/08/14 04:12:18;;;;;;;95.43;89.65;;;23.70;76.60;;;;;;5049088;28;20025;-77
2022/08/14 04:14:45;;;;;;;86.88;81.13;;;23.70;76.10;;;;;;5033217;28;20045;-77
2022/08/14 04:17:11;;;;;;;94.45;88.70;;;23.80;75.90;;;;;;5048783;28;20032;-78
2022/08/14 04:19:38;;;;;;;94.55;88.78;;;23.90;75.90;;;;;;5050585;28;20029;-77
2022/08/14 04:22:05;;;;;;;79.93;74.93;;;23.90;75.90;;;;;;5032860;28;20120;-78
2022/08/14 04:24:31;;;;;;;90.88;85.40;;;24.00;75.00;;;;;;5052642;28;20043;-77
2022/08/14 04:26:58;;;;;;;98.72;92.68;;;24.00;75.10;;;;;;5036293;28;20368;-78
2022/08/14 04:29:24;;;;;;;100.25;94.35;;;24.10;74.90;;;;;;5053085;28;20025;-78
2022/08/14 04:31:50;;;;;;;93.30;87.90;;;24.10;75.00;;;;;;5052479;28;20500;-77
2022/08/14 04:34:16;;;;;;;97.22;91.15;;;24.10;74.90;;;;;;5052925;28;20061;-77
2022/08/14 04:44:57;;;;;;;99.38;92.97;;;23.90;75.70;;;;;;5044975;28;20036;-77
2022/08/14 04:50:07;;;;;;;91.68;86.05;;;24.00;75.00;;;;;;5060334;28;20040;-77
2022/08/14 04:52:34;;;;;;;97.70;91.75;;;23.90;74.50;;;;;;5053696;28;20029;-77
2022/08/14 04:55:00;;;;;;;96.03;90.40;;;23.90;74.60;;;;;;5053509;28;20033;-78
2022/08/14 04:57:26;;;;;;;97.05;91.30;;;24.00;74.90;;;;;;5053799;28;20054;-78
2022/08/14 04:59:52;;;;;;;97.55;91.88;;;23.90;75.60;;;;;;5052445;28;20029;-77
2022/08/14 05:02:24;;;;;;;97.10;91.20;;;23.80;75.10;;;;;;5053144;28;20029;-77
2022/08/14 05:04:50;;;;;;;97.28;91.47;;;23.90;75.30;;;;;;5053794;28;20025;-77
2022/08/14 05:07:16;;;;;;;98.63;92.78;;;24.00;75.00;;;;;;5053491;28;20025;-78
2022/08/14 05:09:43;;;;;;;99.07;93.25;;;23.90;74.70;;;;;;5051955;28;20518;-78
2022/08/14 05:12:10;;;;;;;102.22;95.90;;;24.00;75.00;;;;;;5052017;28;20037;-78
2022/08/14 05:14:36;;;;;;;100.78;94.70;;;24.00;74.60;;;;;;5053315;28;20033;-79
2022/08/14 05:17:03;;;;;;;103.13;97.03;;;24.00;74.60;;;;;;5052999;28;20036;-78
2022/08/14 05:19:29;;;;;;;106.10;99.63;;;24.10;74.40;;;;;;5053314;28;20380;-77
2022/08/14 05:21:57;;;;;;;102.32;96.25;;;24.10;74.30;;;;;;5051814;28;20036;-78
2022/08/14 05:24:23;;;;;;;102.60;96.68;;;24.10;74.30;;;;;;5053251;28;20411;-77
2022/08/14 05:26:49;;;;;;;105.95;99.35;;;24.10;74.30;;;;;;5051988;28;20036;-78
2022/08/14 05:29:16;;;;;;;107.57;101.13;;;24.00;74.10;;;;;;5051972;28;20029;-78
2022/08/14 05:31:42;;;;;;;104.20;98.00;;;24.00;74.30;;;;;;5051779;28;20029;-77
2022/08/14 05:34:09;;;;;;;105.95;99.55;;;24.10;74.50;;;;;;5051437;28;20036;-78
2022/08/14 05:36:35;;;;;;;105.15;99.15;;;24.00;74.30;;;;;;5035493;28;20045;-78
2022/08/14 05:39:01;;;;;;;105.70;99.13;;;24.00;74.40;;;;;;5052571;28;20463;-78
2022/08/14 05:41:27;;;;;;;111.03;104.05;;;24.10;74.40;;;;;;5052913;28;20036;-77
2022/08/14 05:43:54;;;;;;;107.43;101.15;;;24.00;74.30;;;;;;5046631;28;20021;-77
2022/08/14 05:46:23;;;;;;;110.30;103.75;;;24.00;74.20;;;;;;5040541;28;20040;-77
2022/08/14 05:48:49;;;;;;;101.15;94.97;;;24.00;74.40;;;;;;5051785;28;20040;-77
2022/08/14 05:51:16;;;;;;;97.75;91.95;;;23.90;74.60;;;;;;5034806;28;20043;-78
2022/08/14 05:53:42;;;;;;;92.93;87.03;;;23.80;75.40;;;;;;5034825;28;20044;-77
2022/08/14 05:56:08;;;;;;;64.10;59.70;;;23.70;75.90;;;;;;5034576;28;20053;-78
2022/08/14 05:58:34;;;;;;;67.75;63.33;;;23.40;77.00;;;;;;5052586;28;20029;-78
2022/08/14 06:01:00;;;;;;;71.45;66.93;;;23.00;78.50;;;;;;5034150;28;20040;-77
2022/08/14 06:03:26;;;;;;;82.07;77.13;;;22.70;80.20;;;;;;5051291;28;20581;-78
2022/08/14 06:05:53;;;;;;;70.47;66.00;;;22.30;81.70;;;;;;5051213;28;20037;-77
2022/08/14 06:08:27;;;;;;;73.28;68.60;;;22.00;82.90;;;;;;5050734;28;20032;-78
2022/08/14 06:11:02;;;;;;;72.85;68.18;;;22.00;82.80;;;;;;5052387;28;20048;-78
2022/08/14 06:13:29;;;;;;;82.05;76.70;;;22.30;81.90;;;;;;5051070;28;20029;-77
2022/08/14 06:15:55;;;;;;;92.93;87.05;;;22.60;80.70;;;;;;5050377;28;20049;-77
2022/08/14 06:18:21;;;;;;;69.32;64.85;;;22.80;79.80;;;;;;5051216;28;20041;-77
2022/08/14 06:20:48;;;;;;;81.60;76.78;;;23.00;79.10;;;;;;5034009;28;20411;-77
2022/08/14 06:23:14;;;;;;;91.43;86.10;;;23.10;78.30;;;;;;5050610;28;20032;-77
2022/08/14 06:25:41;;;;;;;84.93;79.72;;;23.20;78.00;;;;;;5050843;28;20032;-78
2022/08/14 06:28:07;;;;;;;62.92;58.83;;;23.30;77.40;;;;;;5050843;28;20033;-78
2022/08/14 06:30:33;;;;;;;64.38;60.28;;;23.40;77.10;;;;;;5048420;28;20029;-78
2022/08/14 06:32:59;;;;;;;70.03;65.93;;;23.50;76.60;;;;;;5050459;28;20037;-78
2022/08/14 06:35:26;;;;;;;66.95;62.53;;;23.50;76.00;;;;;;5051677;28;20526;-77
2022/08/14 06:37:54;;;;;;;69.07;64.63;;;23.50;75.80;;;;;;5049287;28;20029;-77
2022/08/14 06:40:22;;;;;;;69.78;65.60;;;23.60;75.80;;;;;;5035255;28;20087;-78
2022/08/14 06:42:48;;;;;;;68.18;63.55;;;23.70;75.70;;;;;;4997916;28;20033;-78
2022/08/14 06:45:15;;;;;;;70.25;65.57;;;23.70;75.60;;;;;;5027826;28;20026;-78
2022/08/14 06:47:42;;;;;;;71.90;67.50;;;23.70;75.40;;;;;;5033510;28;20403;-77
2022/08/14 06:50:10;;;;;;;70.78;66.28;;;23.80;75.50;;;;;;5050374;28;20029;-78
2022/08/14 06:52:37;;;;;;;69.30;64.78;;;23.80;75.40;;;;;;5049916;28;20021;-78
2022/08/14 06:55:06;;;;;;;71.20;66.63;;;23.90;75.20;;;;;;5050407;28;20033;-78
2022/08/14 06:57:37;;;;;;;73.07;68.45;;;23.90;75.20;;;;;;5051548;28;20029;-77
2022/08/14 07:00:14;;;;;;;70.70;66.07;;;23.90;75.20;;;;;;5051037;28;20028;-78
2022/08/14 07:05:49;;;;;;;76.20;71.30;;;24.10;75.00;;;;;;5049081;28;20037;-77
2022/08/14 07:08:21;;;;;;;75.95;71.22;;;24.10;75.10;;;;;;5048936;28;20041;-77
2022/08/14 07:10:48;;;;;;;81.40;76.28;;;24.10;75.20;;;;;;5048796;28;20041;-77
2022/08/14 07:13:16;;;;;;;78.22;73.35;;;24.10;75.40;;;;;;5031408;28;20415;-78
2022/08/14 07:15:44;;;;;;;94.88;88.85;;;24.10;75.80;;;;;;5031967;28;20496;-78
2022/08/14 07:18:11;;;;;;;89.45;83.82;;;24.10;76.00;;;;;;5032666;28;20070;-78
2022/08/14 07:20:37;;;;;;;82.18;76.75;;;24.20;76.00;;;;;;5032006;28;20484;-78
2022/08/14 07:23:05;;;;;;;81.20;76.20;;;24.30;75.60;;;;;;5032068;28;20041;-78
2022/08/14 07:25:31;;;;;;;81.38;75.85;;;24.30;75.90;;;;;;5016044;28;20059;-77
2022/08/14 07:27:57;;;;;;;85.22;79.95;;;24.40;75.50;;;;;;5015642;28;20044;-78
2022/08/14 07:30:23;;;;;;;83.18;77.70;;;24.50;75.40;;;;;;5015407;28;20029;-78
2022/08/14 07:32:50;;;;;;;83.53;77.97;;;24.50;75.40;;;;;;5015761;28;20052;-78
2022/08/14 07:35:16;;;;;;;89.82;83.72;;;24.60;75.30;;;;;;5048134;28;20539;-78
2022/08/14 07:37:42;;;;;;;83.40;78.13;;;24.70;75.30;;;;;;5015059;28;20044;-78
2022/08/14 07:40:09;;;;;;;88.28;82.70;;;24.80;75.60;;;;;;5031948;28;20037;-78
2022/08/14 07:42:35;;;;;;;87.22;81.65;;;24.90;74.80;;;;;;5032582;28;20033;-78
2022/08/14 07:45:02;;;;;;;87.30;81.63;;;25.00;74.30;;;;;;5018353;28;20045;-79
2022/08/14 07:47:28;;;;;;;84.82;79.55;;;25.00;74.10;;;;;;5048214;28;20045;-78
2022/08/14 07:50:01;;;;;;;88.35;82.72;;;25.00;73.90;;;;;;5032694;28;20399;-77
2022/08/14 07:52:28;;;;;;;86.57;80.85;;;24.90;73.90;;;;;;5049551;28;20389;-78
2022/08/14 07:54:54;;;;;;;83.97;77.93;;;24.90;74.10;;;;;;5032576;28;20033;-77
2022/08/14 07:57:20;;;;;;;90.80;84.88;;;24.80;73.90;;;;;;5051000;28;20032;-78
2022/08/14 07:59:47;;;;;;;86.28;80.47;;;24.70;73.40;;;;;;5053650;28;20028;-78
2022/08/14 08:02:17;;;;;;;84.25;78.85;;;24.70;73.80;;;;;;5036666;28;20042;-78
2022/08/14 08:04:45;;;;;;;83.53;77.60;;;24.70;73.70;;;;;;5053167;28;20032;-78
2022/08/14 08:07:11;;;;;;;83.38;77.70;;;24.80;73.60;;;;;;5053578;28;20029;-78
2022/08/14 08:09:41;;;;;;;83.25;77.35;;;24.70;73.70;;;;;;5036932;28;20048;-78
2022/08/14 08:12:09;;;;;;;84.13;78.65;;;24.80;73.60;;;;;;5036808;28;20402;-78
2022/08/14 08:14:36;;;;;;;85.38;80.07;;;24.90;73.60;;;;;;5053417;28;20044;-78
2022/08/14 08:17:02;;;;;;;81.97;76.47;;;24.90;73.10;;;;;;5036098;28;20041;-78
2022/08/14 08:19:30;;;;;;;83.57;78.47;;;24.90;72.70;;;;;;5036172;28;20045;-78
2022/08/14 08:21:57;;;;;;;84.05;78.55;;;24.90;73.00;;;;;;5036349;28;20407;-78
2022/08/14 08:24:23;;;;;;;86.10;80.57;;;24.80;73.20;;;;;;5052979;28;20392;-78
2022/08/14 08:26:49;;;;;;;78.68;73.28;;;24.70;73.40;;;;;;5036341;28;20041;-78
2022/08/14 08:29:20;;;;;;;84.05;78.68;;;24.70;73.30;;;;;;5053139;28;20033;-78
2022/08/14 08:31:50;;;;;;;78.88;73.85;;;24.80;73.40;;;;;;5052428;28;20044;-78
2022/08/14 08:34:17;;;;;;;74.60;70.00;;;24.70;73.00;;;;;;5052781;28;20029;-78
2022/08/14 08:36:43;;;;;;;79.90;74.25;;;24.70;72.80;;;;;;5035809;28;20439;-78
2022/08/14 08:39:10;;;;;;;79.32;73.82;;;24.80;72.60;;;;;;5054125;28;20021;-77
2022/08/14 08:41:42;;;;;;;86.53;81.00;;;24.90;72.60;;;;;;5052555;28;20029;-78
2022/08/14 08:44:08;;;;;;;75.03;70.28;;;24.90;72.60;;;;;;5044637;28;20043;-77
2022/08/14 08:46:34;;;;;;;97.13;91.75;;;24.90;72.00;;;;;;5027249;28;20407;-78
2022/08/14 08:49:01;;;;;;;87.63;82.10;;;24.90;71.00;;;;;;5052886;28;20025;-78
2022/08/14 08:51:28;;;;;;;92.35;86.82;;;24.90;70.30;;;;;;5052355;28;20041;-78
2022/08/14 08:54:01;;;;;;;92.05;86.68;;;24.90;70.60;;;;;;5052664;28;20490;-78
2022/08/14 08:56:37;;;;;;;89.68;84.30;;;24.80;69.90;;;;;;5052505;28;20032;-78
2022/08/14 08:59:14;;;;;;;90.32;84.90;;;24.80;69.60;;;;;;5052327;28;20387;-78
2022/08/14 09:01:40;;;;;;;91.97;86.45;;;24.80;69.80;;;;;;5051761;28;20044;-78
2022/08/14 09:04:06;;;;;;;90.00;84.68;;;24.60;70.10;;;;;;5052334;28;20029;-78
2022/08/14 09:06:45;;;;;;;89.82;84.32;;;24.70;70.00;;;;;;5052411;28;20024;-78
2022/08/14 09:09:24;;;;;;;96.20;90.03;;;24.70;69.60;;;;;;5051548;28;20043;-78
2022/08/14 09:11:53;;;;;;;90.70;85.68;;;24.70;69.30;;;;;;5052280;28;20025;-79
2022/08/14 09:14:24;;;;;;;94.70;89.00;;;24.70;69.60;;;;;;5052334;28;20032;-78
2022/08/14 09:16:50;;;;;;;93.03;87.55;;;24.70;69.10;;;;;;5034507;28;20044;-78
2022/08/14 09:19:16;;;;;;;78.13;73.22;;;24.70;69.00;;;;;;5052097;28;20024;-78
2022/08/14 09:21:43;;;;;;;88.22;83.00;;;24.60;69.60;;;;;;5035325;28;20044;-78
2022/08/14 09:24:09;;;;;;;87.78;82.53;;;24.60;69.00;;;;;;5052175;28;20047;-78
2022/08/14 09:26:35;;;;;;;83.15;78.07;;;24.60;68.90;;;;;;5035154;28;20376;-78
2022/08/14 09:29:03;;;;;;;88.97;83.57;;;24.60;69.50;;;;;;5051841;28;20025;-78
2022/08/14 09:31:29;;;;;;;90.78;85.50;;;24.50;69.20;;;;;;5052414;28;20041;-78
2022/08/14 09:34:14;;;;;;;93.15;88.07;;;24.60;68.80;;;;;;5052057;28;20411;-78
2022/08/14 09:37:10;;;;;;;89.22;83.90;;;24.60;68.20;;;;;;5051637;28;20040;-78
2022/08/14 09:39:37;;;;;;;92.05;86.97;;;24.60;68.20;;;;;;5043613;28;20021;-78
2022/08/14 09:42:12;;;;;;;95.32;89.50;;;24.60;68.10;;;;;;5033177;28;20022;-78
2022/08/14 09:44:46;;;;;;;100.93;95.50;;;24.60;67.70;;;;;;5043530;28;20041;-78
2022/08/14 09:47:13;;;;;;;92.00;87.13;;;24.60;67.70;;;;;;5035161;28;20053;-78
2022/08/14 09:49:41;;;;;;;90.00;85.25;;;24.70;67.60;;;;;;5034959;28;20091;-78
2022/08/14 09:52:12;;;;;;;108.97;103.03;;;24.60;66.60;;;;;;5035564;28;20048;-78
2022/08/14 09:54:39;;;;;;;;;;;24.70;66.10;;;;;;5035628;28;20746;-78
2022/08/14 09:57:06;;;;;;;90.72;85.80;;;24.70;66.30;;;;;;5052583;28;19967;-78
2022/08/14 09:59:39;;;;;;;103.20;97.78;;;24.70;66.50;;;;;;5034699;28;20041;-78
2022/08/14 10:02:22;;;;;;;85.85;81.03;;;24.60;66.20;;;;;;5050696;28;20044;-78
2022/08/14 10:05:10;;;;;;;101.35;95.70;;;24.70;65.90;;;;;;5051361;28;20397;-78
2022/08/14 10:07:49;;;;;;;102.65;97.13;;;24.70;66.10;;;;;;5035898;28;20455;-78
2022/08/14 10:10:46;;;;;;;98.20;92.78;;;24.70;66.10;;;;;;5052433;28;20036;-78
2022/08/14 10:13:25;;;;;;;100.85;95.28;;;24.80;66.00;;;;;;5042572;28;20044;-78
2022/08/14 10:15:56;;;;;;;101.63;96.10;;;24.90;65.20;;;;;;5033943;28;20052;-78
2022/08/14 10:18:25;;;;;;;96.10;90.93;;;24.90;65.40;;;;;;5035397;28;20460;-78
2022/08/14 10:20:56;;;;;;;103.72;98.10;;;25.00;65.00;;;;;;5034836;28;20410;-77
2022/08/14 10:23:24;;;;;;;100.75;95.32;;;25.20;64.70;;;;;;5034144;28;20033;-78
2022/08/14 10:25:52;;;;;;;94.53;89.70;;;25.20;64.40;;;;;;5034632;28;20028;-78
2022/08/14 10:28:19;;;;;;;98.55;93.10;;;25.20;64.80;;;;;;5050563;28;20025;-78
2022/08/14 10:30:47;;;;;;;99.68;94.28;;;25.30;64.90;;;;;;5034026;28;20036;-78
2022/08/14 10:33:28;;;;;;;103.70;98.10;;;25.30;64.40;;;;;;5034601;28;20017;-78
2022/08/14 10:35:54;;;;;;;106.43;100.53;;;25.40;64.00;;;;;;5051664;28;20033;-78
2022/08/14 10:38:32;;;;;;;103.03;97.57;;;25.40;63.90;;;;;;5050770;28;20028;-78
2022/08/14 10:41:41;;;;;;;109.82;103.72;;;25.30;64.10;;;;;;5030515;28;20041;-78
2022/08/14 10:44:13;;;;;;;107.43;101.60;;;25.20;64.50;;;;;;5005831;28;20043;-78
2022/08/14 10:47:09;;;;;;;100.60;95.30;;;25.30;64.60;;;;;;5033413;28;20389;-78
2022/08/14 10:49:36;;;;;;;97.95;92.65;;;25.20;64.20;;;;;;5049888;28;20765;-78
2022/08/14 10:52:07;;;;;;;114.00;107.97;;;25.30;64.20;;;;;;5033715;28;20045;-78
2022/08/14 10:54:35;;;;;;;102.07;96.55;;;25.30;64.40;;;;;;5050305;28;20029;-78
2022/08/14 10:57:20;;;;;;;101.65;96.15;;;25.30;64.50;;;;;;5051395;28;20476;-78
2022/08/14 10:59:56;;;;;;;100.03;94.63;;;25.40;64.30;;;;;;5050158;28;20032;-78
2022/08/14 11:02:35;;;;;;;97.22;91.97;;;25.60;64.00;;;;;;5049768;28;20404;-78
2022/08/14 11:05:13;;;;;;;94.45;89.38;;;25.70;63.40;;;;;;5050258;28;20025;-78
2022/08/14 11:07:55;;;;;;;91.95;86.57;;;25.80;64.10;;;;;;5049932;28;20044;-78
2022/08/14 11:10:57;;;;;;;122.90;116.40;;;25.70;63.90;;;;;;5050061;28;20025;-78
2022/08/14 11:13:26;;;;;;;103.28;97.57;;;25.70;63.60;;;;;;5028487;28;20343;-78
2022/08/14 11:15:54;;;;;;;107.15;101.07;;;25.70;63.50;;;;;;5028223;28;20508;-78
2022/08/14 11:18:21;;;;;;;97.50;91.75;;;25.90;63.30;;;;;;5029050;28;20034;-78
2022/08/14 11:20:53;;;;;;;105.93;99.97;;;26.10;63.10;;;;;;5028887;28;20037;-78
2022/08/14 11:23:21;;;;;;;98.78;93.43;;;26.10;62.30;;;;;;5012011;28;20041;-78
2022/08/14 11:25:48;;;;;;;97.57;92.30;;;26.20;62.20;;;;;;5012128;28;20037;-78
2022/08/14 11:28:14;;;;;;;99.72;93.68;;;26.20;61.60;;;;;;5028409;28;20045;-78
2022/08/14 11:30:43;;;;;;;98.72;93.07;;;26.30;62.20;;;;;;5028089;28;20026;-78
2022/08/14 11:33:12;;;;;;;100.38;94.75;;;26.30;61.70;;;;;;5028388;28;20037;-78
2022/08/14 11:35:40;;;;;;;84.32;79.20;;;26.30;61.70;;;;;;5028576;28;20556;-78
2022/08/14 11:38:06;;;;;;;108.32;102.15;;;26.30;61.40;;;;;;5028945;28;20040;-78
2022/08/14 11:40:34;;;;;;;85.03;80.10;;;26.40;61.80;;;;;;5014911;28;20034;-78
2022/08/14 11:43:05;;;;;;;87.28;82.40;;;26.40;61.30;;;;;;5028824;28;20049;-78
2022/08/14 11:45:36;;;;;;;87.05;81.75;;;26.40;61.20;;;;;;5012052;28;20030;-78
2022/08/14 11:48:13;;;;;;;82.95;78.18;;;26.50;60.80;;;;;;5030103;28;20065;-77
2022/08/14 11:50:39;;;;;;;83.00;78.15;;;26.40;61.10;;;;;;5049351;28;20035;-78
2022/08/14 11:53:06;;;;;;;74.57;70.35;;;26.50;60.70;;;;;;5016935;28;20045;-78
2022/08/14 11:55:35;;;;;;;83.82;79.13;;;26.50;60.30;;;;;;5032779;28;20044;-78
2022/08/14 11:58:09;;;;;;;78.55;73.80;;;26.60;61.00;;;;;;5049566;28;20036;-78
2022/08/14 12:01:07;;;;;;;75.38;71.03;;;26.60;60.70;;;;;;5048918;28;20464;-78
2022/08/14 12:03:48;;;;;;;84.10;79.15;;;26.60;60.10;;;;;;5041711;28;20033;-78
2022/08/14 12:06:16;;;;;;;79.03;74.20;;;26.90;60.60;;;;;;5050775;28;20036;-78
2022/08/14 12:08:42;;;;;;;83.13;78.78;;;26.90;59.60;;;;;;5033043;28;20032;-78
2022/08/14 12:11:12;;;;;;;58.13;54.38;;;27.00;59.30;;;;;;5032323;28;20510;-78
2022/08/14 12:13:38;;;;;;;61.17;57.55;;;27.10;59.00;;;;;;5017492;28;20056;-78
2022/08/14 12:16:07;;;;;;;55.60;51.80;;;27.20;58.30;;;;;;5032212;28;20052;-78
2022/08/14 12:18:35;;;;;;;60.60;57.00;;;27.30;58.20;;;;;;5033127;28;20025;-78
2022/08/14 12:21:16;;;;;;;50.15;46.70;;;27.30;57.90;;;;;;5049285;28;20025;-78
2022/08/14 12:23:42;;;;;;;50.75;47.55;;;27.30;57.70;;;;;;5032399;28;20037;-78
2022/08/14 12:26:12;;;;;;;44.50;40.67;;;27.30;58.10;;;;;;5032353;28;20037;-77
2022/08/14 12:28:38;;;;;;;43.45;40.47;;;27.40;58.10;;;;;;5033306;28;20479;-78
2022/08/14 12:31:16;;;;;;;44.17;41.08;;;27.50;57.90;;;;;;5031860;28;20044;-78
2022/08/14 12:33:42;;;;;;;47.35;44.20;;;27.60;57.80;;;;;;5033102;28;20029;-78
2022/08/14 12:36:21;;;;;;;42.42;39.63;;;27.80;57.20;;;;;;5032518;28;20048;-78
2022/08/14 12:38:49;;;;;;;41.47;38.47;;;27.90;56.30;;;;;;5033113;28;20040;-78
2022/08/14 12:41:20;;;;;;;41.83;38.92;;;27.80;56.80;;;;;;5048970;28;20384;-78
2022/08/14 12:43:53;;;;;;;44.60;41.40;;;27.80;56.40;;;;;;5028149;28;20033;-78
2022/08/14 12:46:28;;;;;;;45.10;42.10;;;27.70;57.00;;;;;;5041721;28;20029;-78
2022/08/14 12:48:54;;;;;;;40.67;37.83;;;27.70;57.00;;;;;;5053954;28;20021;-78
2022/08/14 12:51:24;;;;;;;40.53;38.00;;;27.70;56.40;;;;;;5052663;28;20033;-78